Terminal Aerodrome Forecast
Issued by NWS

Home | Current Version | Previous Version | Text Only | Print | Product List | Glossary On
Versions: 1 2 3 4 5 6 7 8 9 10 11 12 13
194
FTAK31 PAJN 230535
TAFAWG
TAF
PAWG 230535Z 2306/2406 VRB04KT P6SM FEW035
     FM231100 VRB03KT P6SM FEW005 SCT220
     FM231700 31005KT P6SM SCT200
     FM240400 VRB04KT P6SM BKN110
      AMD LTD TO CLD VIS AND WIND 2306/2315=

USA.gov is the U.S. government's official web portal to all federal, state and local government web resources and services.